createdAt,value
2018-07-26T00:00:37.857Z,24.97
2018-07-26T00:03:11.257Z,24.99
2018-07-26T00:05:44.631Z,24.95
2018-07-26T00:08:18.003Z,24.97
2018-07-26T00:10:51.408Z,24.99
2018-07-26T00:13:24.791Z,24.95
2018-07-26T00:15:58.171Z,24.92
2018-07-26T00:18:31.593Z,24.85
2018-07-26T00:21:05.036Z,24.79
2018-07-26T00:23:38.451Z,24.72
2018-07-26T00:26:11.894Z,24.70
2018-07-26T00:28:45.267Z,24.64
2018-07-26T00:31:18.685Z,24.63
2018-07-26T00:33:52.135Z,24.61
2018-07-26T00:36:25.548Z,24.58
2018-07-26T00:38:58.923Z,24.51
2018-07-26T00:41:32.323Z,24.53
2018-07-26T00:44:05.761Z,24.56
2018-07-26T00:46:39.220Z,24.59
2018-07-26T00:49:12.604Z,24.56
2018-07-26T00:51:46.037Z,24.50
2018-07-26T00:54:19.435Z,24.41
2018-07-26T00:56:52.815Z,24.36
2018-07-26T00:59:26.173Z,24.41
2018-07-26T01:01:59.554Z,24.40
2018-07-26T01:04:32.938Z,24.43
2018-07-26T01:07:06.360Z,24.45
2018-07-26T01:09:39.771Z,24.43
2018-07-26T01:12:13.185Z,24.38
2018-07-26T01:14:46.560Z,24.32
2018-07-26T01:17:20.037Z,24.29
2018-07-26T01:19:53.507Z,24.26
2018-07-26T01:22:26.912Z,24.25
2018-07-26T01:25:00.316Z,24.20
2018-07-26T01:27:33.695Z,24.09
2018-07-26T01:30:07.330Z,24.04
2018-07-26T01:32:40.742Z,24.02
2018-07-26T01:35:14.152Z,24.00
2018-07-26T01:37:47.534Z,23.94
2018-07-26T01:40:20.908Z,23.91
2018-07-26T01:43:05.579Z,23.86
2018-07-26T01:45:38.986Z,23.85
2018-07-26T01:48:12.359Z,23.81
2018-07-26T01:50:45.754Z,23.72
2018-07-26T01:53:19.106Z,23.64
2018-07-26T01:55:52.519Z,23.57
2018-07-26T01:58:25.888Z,23.49
2018-07-26T02:00:59.287Z,23.46
2018-07-26T02:03:32.857Z,23.42
2018-07-26T02:06:06.362Z,23.36
2018-07-26T02:08:39.775Z,23.33
2018-07-26T02:11:13.216Z,23.24
2018-07-26T02:13:46.595Z,23.14
2018-07-26T02:16:20.003Z,23.10
2018-07-26T02:18:53.410Z,23.10
2018-07-26T02:21:26.809Z,23.04
2018-07-26T02:24:00.167Z,23.02
2018-07-26T02:26:33.581Z,22.96
2018-07-26T02:29:06.959Z,22.91
2018-07-26T02:31:40.340Z,22.81
2018-07-26T02:34:13.715Z,22.69
2018-07-26T02:36:47.115Z,22.65
2018-07-26T02:39:20.486Z,22.63
2018-07-26T02:41:53.906Z,22.61
2018-07-26T02:44:27.331Z,22.55
2018-07-26T02:47:00.738Z,22.51
2018-07-26T02:49:34.152Z,22.45
2018-07-26T02:52:07.544Z,22.44
2018-07-26T02:54:40.904Z,22.43
2018-07-26T02:57:14.324Z,22.43
2018-07-26T02:59:47.708Z,22.36
2018-07-26T03:02:21.088Z,22.30
2018-07-26T03:04:54.479Z,22.27
2018-07-26T03:07:27.895Z,22.22
2018-07-26T03:10:01.334Z,22.19
2018-07-26T03:12:34.727Z,22.19
2018-07-26T03:15:08.156Z,22.16
2018-07-26T03:17:41.605Z,22.08
2018-07-26T03:20:14.989Z,22.05
2018-07-26T03:22:48.430Z,22.04
2018-07-26T03:25:21.799Z,22.03
2018-07-26T03:27:55.244Z,21.96
2018-07-26T03:30:28.649Z,21.91
2018-07-26T03:33:02.072Z,21.83
2018-07-26T03:35:35.454Z,21.78
2018-07-26T03:38:08.827Z,21.73
2018-07-26T03:40:42.202Z,21.72
2018-07-26T03:43:15.592Z,21.74
2018-07-26T03:45:49.003Z,21.74
2018-07-26T03:48:22.393Z,21.74
2018-07-26T03:50:55.787Z,21.73
2018-07-26T03:53:29.202Z,21.76
2018-07-26T03:56:02.559Z,21.75
2018-07-26T03:58:35.940Z,21.71
2018-07-26T04:01:09.345Z,21.70
2018-07-26T04:03:42.743Z,21.71
2018-07-26T04:06:16.291Z,21.72
2018-07-26T04:08:49.684Z,21.72
2018-07-26T04:11:23.128Z,21.72
2018-07-26T04:13:56.579Z,21.71
2018-07-26T04:16:30.080Z,21.68
2018-07-26T04:19:03.575Z,21.68
2018-07-26T04:21:37.343Z,21.68
2018-07-26T04:24:10.832Z,21.69
2018-07-26T04:26:44.255Z,21.72
2018-07-26T04:29:17.683Z,21.75
2018-07-26T04:31:51.151Z,21.72
2018-07-26T04:34:24.545Z,21.75
2018-07-26T04:36:57.928Z,21.85
2018-07-26T04:39:31.460Z,21.93
2018-07-26T04:42:05.007Z,22.11
2018-07-26T04:44:38.403Z,22.28
2018-07-26T04:47:12.061Z,22.45
2018-07-26T04:49:45.525Z,22.64
2018-07-26T04:52:19.104Z,22.77
2018-07-26T04:54:52.733Z,22.92
2018-07-26T04:57:26.161Z,23.02
2018-07-26T04:59:59.591Z,23.14
2018-07-26T05:02:33.014Z,23.27
2018-07-26T05:05:06.990Z,23.37
2018-07-26T05:07:40.381Z,23.47
2018-07-26T05:10:13.770Z,23.60
2018-07-26T05:12:48.791Z,23.74
2018-07-26T05:15:22.237Z,23.87
2018-07-26T05:17:55.626Z,24.04
2018-07-26T05:20:29.043Z,24.20
2018-07-26T05:23:02.468Z,24.51
2018-07-26T05:25:35.912Z,24.78
2018-07-26T05:28:09.281Z,24.95
2018-07-26T05:30:42.647Z,25.11
2018-07-26T05:33:16.052Z,25.31
2018-07-26T05:35:49.434Z,25.49
2018-07-26T05:38:22.856Z,25.64
2018-07-26T05:40:56.248Z,25.82
2018-07-26T05:43:29.645Z,25.91
2018-07-26T05:46:03.291Z,26.08
2018-07-26T05:48:36.680Z,26.22
2018-07-26T05:51:10.123Z,26.34
2018-07-26T05:53:43.554Z,26.48
2018-07-26T05:56:16.911Z,26.54
2018-07-26T05:58:50.311Z,26.61
2018-07-26T06:01:23.725Z,26.64
2018-07-26T06:03:57.456Z,26.74
2018-07-26T06:06:30.845Z,26.88
2018-07-26T06:09:06.654Z,27.09
2018-07-26T06:11:40.603Z,27.28
2018-07-26T06:14:14.051Z,27.43
2018-07-26T06:16:47.436Z,27.52
2018-07-26T06:19:20.862Z,27.61
2018-07-26T06:21:54.283Z,27.76
2018-07-26T06:24:27.696Z,27.83
2018-07-26T06:27:01.117Z,27.96
2018-07-26T06:29:34.513Z,28.06
2018-07-26T06:32:08.027Z,28.24
2018-07-26T06:34:41.446Z,28.43
2018-07-26T06:37:14.873Z,28.54
2018-07-26T06:39:48.256Z,28.62
2018-07-26T06:42:21.614Z,28.58
2018-07-26T06:44:55.119Z,28.71
2018-07-26T06:47:28.493Z,28.76
2018-07-26T06:50:01.875Z,28.82
2018-07-26T06:52:35.313Z,28.97
2018-07-26T06:55:08.857Z,28.96
2018-07-26T06:57:42.253Z,29.07
2018-07-26T07:00:15.656Z,29.18
2018-07-26T07:02:49.041Z,29.03
2018-07-26T07:05:22.522Z,29.12
2018-07-26T07:07:55.879Z,29.31
2018-07-26T07:10:29.416Z,29.54
2018-07-26T07:13:02.832Z,29.78
2018-07-26T07:15:36.238Z,29.90
2018-07-26T07:18:09.621Z,29.95
2018-07-26T07:20:43.031Z,29.98
2018-07-26T07:23:16.436Z,30.03
2018-07-26T07:25:49.961Z,30.12
2018-07-26T07:28:23.356Z,30.26
2018-07-26T07:30:56.769Z,30.31
2018-07-26T07:33:30.249Z,30.52
2018-07-26T07:36:03.861Z,30.56
2018-07-26T07:38:37.252Z,30.94
2018-07-26T07:41:10.715Z,31.59
2018-07-26T07:43:44.102Z,31.90
2018-07-26T07:46:17.764Z,31.97
2018-07-26T07:48:51.164Z,31.72
2018-07-26T07:51:24.873Z,31.68
2018-07-26T07:53:58.493Z,31.80
2018-07-26T07:56:31.992Z,31.87
2018-07-26T07:59:05.427Z,31.86
2018-07-26T08:01:38.862Z,31.84
2018-07-26T08:04:12.245Z,31.89
2018-07-26T08:06:45.753Z,31.90
2018-07-26T08:09:19.159Z,32.06
2018-07-26T08:11:52.554Z,32.35
2018-07-26T08:14:25.939Z,32.31
2018-07-26T08:16:59.336Z,32.51
2018-07-26T08:19:32.795Z,32.69
2018-07-26T08:22:06.378Z,32.50
2018-07-26T08:24:39.772Z,32.51
2018-07-26T08:27:13.147Z,32.36
2018-07-26T08:29:46.557Z,32.54
2018-07-26T08:32:19.959Z,32.80
2018-07-26T08:34:53.381Z,32.95
2018-07-26T08:37:26.742Z,33.14
2018-07-26T08:40:00.153Z,33.24
2018-07-26T08:42:33.543Z,33.11
2018-07-26T08:45:06.981Z,33.24
2018-07-26T08:47:40.358Z,33.05
2018-07-26T08:50:13.805Z,33.08
2018-07-26T08:52:47.169Z,33.24
2018-07-26T08:55:20.558Z,33.23
2018-07-26T08:57:54.055Z,33.20
2018-07-26T09:00:27.439Z,33.42
2018-07-26T09:03:00.864Z,33.67
2018-07-26T09:05:34.254Z,33.91
2018-07-26T09:08:07.614Z,33.90
2018-07-26T09:10:40.996Z,33.75
2018-07-26T09:13:14.374Z,33.63
2018-07-26T09:15:47.762Z,33.68
2018-07-26T09:18:21.198Z,33.95
2018-07-26T09:20:54.676Z,34.28
2018-07-26T09:23:29.270Z,34.13
2018-07-26T09:26:02.857Z,34.11
2018-07-26T09:28:36.325Z,34.04
2018-07-26T09:31:10.122Z,34.04
2018-07-26T09:33:43.875Z,33.91
2018-07-26T09:36:17.820Z,33.97
2018-07-26T09:38:51.321Z,34.01
2018-07-26T09:41:24.823Z,34.14
2018-07-26T09:43:58.190Z,33.84
2018-07-26T09:46:31.751Z,33.67
2018-07-26T09:49:05.276Z,33.76
2018-07-26T09:51:38.678Z,34.03
2018-07-26T09:54:12.061Z,34.22
2018-07-26T09:56:45.462Z,34.15
2018-07-26T09:59:18.854Z,34.13
2018-07-26T10:01:52.267Z,34.13
2018-07-26T10:04:25.651Z,34.37
2018-07-26T10:06:59.089Z,34.63
2018-07-26T10:09:32.558Z,34.80
2018-07-26T10:12:06.019Z,34.84
2018-07-26T10:14:39.402Z,34.83
2018-07-26T10:17:12.793Z,34.93
2018-07-26T10:19:46.196Z,34.82
2018-07-26T10:22:19.619Z,34.81
2018-07-26T10:24:59.643Z,34.84
2018-07-26T10:27:33.135Z,34.94
2018-07-26T10:30:08.384Z,35.04
2018-07-26T10:32:41.771Z,34.95
2018-07-26T10:35:15.177Z,35.07
2018-07-26T10:37:48.593Z,35.03
2018-07-26T10:40:22.068Z,35.17
2018-07-26T10:42:55.482Z,35.00
2018-07-26T10:45:28.892Z,34.95
2018-07-26T10:48:02.328Z,35.18
2018-07-26T10:50:35.721Z,35.35
2018-07-26T10:53:09.129Z,35.27
2018-07-26T10:55:42.510Z,35.31
2018-07-26T10:58:15.923Z,35.38
2018-07-26T11:00:49.304Z,35.36
2018-07-26T11:03:23.446Z,35.29
2018-07-26T11:05:56.843Z,35.12
2018-07-26T11:08:30.244Z,35.21
2018-07-26T11:11:03.628Z,35.42
2018-07-26T11:13:37.044Z,35.44
2018-07-26T11:16:10.435Z,35.30
2018-07-26T11:18:43.839Z,35.49
2018-07-26T11:21:17.214Z,35.78
2018-07-26T11:23:50.646Z,36.04
2018-07-26T11:26:24.043Z,36.21
2018-07-26T11:28:57.455Z,36.33
2018-07-26T11:31:30.819Z,35.96
2018-07-26T11:34:04.243Z,36.11
2018-07-26T11:36:37.626Z,36.52
2018-07-26T11:39:11.962Z,37.11
2018-07-26T11:41:45.398Z,36.79
2018-07-26T11:44:18.756Z,36.96
2018-07-26T11:46:52.164Z,37.14
2018-07-26T11:49:32.335Z,36.93
2018-07-26T11:52:05.841Z,36.77
2018-07-26T11:54:39.226Z,36.65
2018-07-26T11:57:12.623Z,36.09
2018-07-26T11:59:46.176Z,35.83
2018-07-26T12:02:19.654Z,35.73
2018-07-26T12:04:53.036Z,36.01
2018-07-26T12:07:26.428Z,36.06
2018-07-26T12:09:59.822Z,36.27
2018-07-26T12:12:33.287Z,36.14
2018-07-26T12:15:06.668Z,35.89
2018-07-26T12:17:40.106Z,35.66
2018-07-26T12:20:13.511Z,35.52
2018-07-26T12:22:46.910Z,35.65
2018-07-26T12:25:20.300Z,35.48
2018-07-26T12:27:53.699Z,35.57
2018-07-26T12:30:27.086Z,35.28
2018-07-26T12:33:00.472Z,35.55
2018-07-26T12:35:33.863Z,35.73
2018-07-26T12:38:07.299Z,35.80
2018-07-26T12:40:40.699Z,35.77
2018-07-26T12:43:14.118Z,35.62
2018-07-26T12:45:47.529Z,35.51
2018-07-26T12:48:20.938Z,35.64
2018-07-26T12:50:54.368Z,35.70
2018-07-26T12:53:27.839Z,35.92
2018-07-26T12:56:01.271Z,35.99
2018-07-26T12:58:34.685Z,36.12
2018-07-26T13:01:08.154Z,36.20
2018-07-26T13:03:41.651Z,36.06
2018-07-26T13:06:15.080Z,35.88
2018-07-26T13:08:48.481Z,35.90
2018-07-26T13:11:21.878Z,36.08
2018-07-26T13:13:55.287Z,36.10
2018-07-26T13:16:35.215Z,35.84
2018-07-26T13:19:08.627Z,35.73
2018-07-26T13:21:42.001Z,35.66
2018-07-26T13:24:15.421Z,35.78
2018-07-26T13:26:48.795Z,35.83
2018-07-26T13:29:22.599Z,35.84
2018-07-26T13:31:55.979Z,35.83
2018-07-26T13:34:29.387Z,35.89
2018-07-26T13:37:02.802Z,36.12
2018-07-26T13:39:36.184Z,36.10
2018-07-26T13:42:09.559Z,36.25
2018-07-26T13:44:42.963Z,36.14
2018-07-26T13:47:16.451Z,36.08
2018-07-26T13:49:49.870Z,35.95
2018-07-26T13:52:23.364Z,36.10
2018-07-26T13:54:56.773Z,36.00
2018-07-26T13:57:30.251Z,36.08
2018-07-26T14:00:03.714Z,36.25
2018-07-26T14:02:37.129Z,36.38
2018-07-26T14:05:10.581Z,36.33
2018-07-26T14:07:44.058Z,36.31
2018-07-26T14:10:17.466Z,36.31
2018-07-26T14:12:50.842Z,36.21
2018-07-26T14:15:24.308Z,36.01
2018-07-26T14:17:57.664Z,35.82
2018-07-26T14:20:31.099Z,35.63
2018-07-26T14:23:04.484Z,35.51
2018-07-26T14:25:37.880Z,35.62
2018-07-26T14:28:11.257Z,35.52
2018-07-26T14:30:44.651Z,35.42
2018-07-26T14:33:18.017Z,35.58
2018-07-26T14:35:51.403Z,35.78
2018-07-26T14:38:24.799Z,35.77
2018-07-26T14:40:58.310Z,35.78
2018-07-26T14:43:31.717Z,35.94
2018-07-26T14:46:05.155Z,35.85
2018-07-26T14:48:38.532Z,35.93
2018-07-26T14:51:11.968Z,35.85
2018-07-26T14:53:45.351Z,35.64
2018-07-26T14:56:18.750Z,35.55
2018-07-26T14:58:52.325Z,35.35
2018-07-26T15:01:25.802Z,35.23
2018-07-26T15:03:59.294Z,35.18
2018-07-26T15:06:32.726Z,35.08
2018-07-26T15:09:09.412Z,35.08
2018-07-26T15:11:42.832Z,35.09
2018-07-26T15:14:16.481Z,34.99
2018-07-26T15:16:49.899Z,35.08
2018-07-26T15:19:23.505Z,35.26
2018-07-26T15:21:57.175Z,35.42
2018-07-26T15:24:32.089Z,35.37
2018-07-26T15:27:05.975Z,35.33
2018-07-26T15:29:40.096Z,35.37
2018-07-26T15:32:13.531Z,35.43
2018-07-26T15:34:47.349Z,35.44
2018-07-26T15:37:21.027Z,35.47
2018-07-26T15:39:54.430Z,35.34
2018-07-26T15:42:27.796Z,35.19
2018-07-26T15:45:01.319Z,35.25
2018-07-26T15:47:34.987Z,35.20
2018-07-26T15:50:08.388Z,35.18
2018-07-26T15:52:41.823Z,35.14
2018-07-26T15:55:15.214Z,35.03
2018-07-26T15:57:48.683Z,35.08
2018-07-26T16:00:22.100Z,35.00
2018-07-26T16:02:55.739Z,35.04
2018-07-26T16:05:29.167Z,34.98
2018-07-26T16:08:02.605Z,34.99
2018-07-26T16:10:36.112Z,34.94
2018-07-26T16:13:09.492Z,35.02
2018-07-26T16:15:42.920Z,34.95
2018-07-26T16:18:16.395Z,34.99
2018-07-26T16:20:49.835Z,35.08
2018-07-26T16:23:23.356Z,35.20
2018-07-26T16:25:56.781Z,35.30
2018-07-26T16:28:30.272Z,35.42
2018-07-26T16:31:03.760Z,35.48
2018-07-26T16:33:37.155Z,35.54
2018-07-26T16:36:10.540Z,35.55
2018-07-26T16:38:44.223Z,35.47
2018-07-26T16:41:17.971Z,35.60
2018-07-26T16:43:51.597Z,35.55
2018-07-26T16:46:25.028Z,35.53
2018-07-26T16:48:58.465Z,35.45
2018-07-26T16:51:31.892Z,35.34
2018-07-26T16:54:05.302Z,35.16
2018-07-26T16:56:38.764Z,35.12
2018-07-26T16:59:12.166Z,34.78
2018-07-26T17:01:45.561Z,34.82
2018-07-26T17:04:18.918Z,34.82
2018-07-26T17:06:52.589Z,34.74
2018-07-26T17:09:26.016Z,34.61
2018-07-26T17:11:59.401Z,34.49
2018-07-26T17:14:33.118Z,34.32
2018-07-26T17:17:07.208Z,34.22
2018-07-26T17:19:40.926Z,34.09
2018-07-26T17:22:15.688Z,34.02
2018-07-26T17:24:50.295Z,33.98
2018-07-26T17:27:24.658Z,34.01
2018-07-26T17:29:58.089Z,33.92
2018-07-26T17:32:31.659Z,33.99
2018-07-26T17:35:05.406Z,34.12
2018-07-26T17:37:38.821Z,34.15
2018-07-26T17:40:12.227Z,34.01
2018-07-26T17:42:45.647Z,33.85
2018-07-26T17:45:19.147Z,33.83
2018-07-26T17:47:52.497Z,33.79
2018-07-26T17:50:25.866Z,33.77
2018-07-26T17:53:00.063Z,33.75
2018-07-26T17:55:33.444Z,33.52
2018-07-26T17:58:07.827Z,33.58
2018-07-26T18:00:41.271Z,33.56
2018-07-26T18:03:14.654Z,33.47
2018-07-26T18:05:48.055Z,33.48
2018-07-26T18:08:21.456Z,33.34
2018-07-26T18:10:54.877Z,33.29
2018-07-26T18:13:28.291Z,33.31
2018-07-26T18:16:01.683Z,33.30
2018-07-26T18:18:35.101Z,33.23
2018-07-26T18:21:08.598Z,33.29
2018-07-26T18:23:41.992Z,33.09
2018-07-26T18:26:15.860Z,33.13
2018-07-26T18:28:49.230Z,33.10
2018-07-26T18:31:22.673Z,33.05
2018-07-26T18:33:56.111Z,32.99
2018-07-26T18:36:29.876Z,32.92
2018-07-26T18:39:03.389Z,32.83
2018-07-26T18:41:36.895Z,32.78
2018-07-26T18:44:10.563Z,32.74
2018-07-26T18:46:43.895Z,32.73
2018-07-26T18:49:20.161Z,32.64
2018-07-26T18:51:53.576Z,32.50
2018-07-26T18:54:26.968Z,32.38
2018-07-26T18:57:00.379Z,32.26
2018-07-26T18:59:33.879Z,32.18
2018-07-26T19:02:07.321Z,32.07
2018-07-26T19:04:40.709Z,31.96
2018-07-26T19:07:14.161Z,31.87
2018-07-26T19:09:47.874Z,31.81
2018-07-26T19:12:21.357Z,31.70
2018-07-26T19:14:54.822Z,31.57
2018-07-26T19:17:28.239Z,31.44
2018-07-26T19:20:01.672Z,31.27
2018-07-26T19:22:35.416Z,31.08
2018-07-26T19:25:09.559Z,30.97
2018-07-26T19:27:42.977Z,30.93
2018-07-26T19:30:16.588Z,30.72
2018-07-26T19:32:50.002Z,30.59
2018-07-26T19:35:23.359Z,30.40
2018-07-26T19:37:56.768Z,30.31
2018-07-26T19:40:30.207Z,30.25
2018-07-26T19:43:03.596Z,30.09
2018-07-26T19:45:36.955Z,30.04
2018-07-26T19:48:10.596Z,29.87
2018-07-26T19:50:43.956Z,29.77
2018-07-26T19:53:17.423Z,29.73
2018-07-26T19:55:50.849Z,29.65
2018-07-26T19:58:24.236Z,29.58
2018-07-26T20:00:58.617Z,29.45
2018-07-26T20:03:32.035Z,29.32
2018-07-26T20:06:05.412Z,29.22
2018-07-26T20:08:38.793Z,29.02
2018-07-26T20:11:12.358Z,28.93
2018-07-26T20:13:45.758Z,28.68
2018-07-26T20:16:19.118Z,28.57
2018-07-26T20:18:52.571Z,28.48
2018-07-26T20:21:25.941Z,28.43
2018-07-26T20:23:59.336Z,28.28
2018-07-26T20:26:32.733Z,28.19
2018-07-26T20:29:06.254Z,28.13
2018-07-26T20:31:39.665Z,28.04
2018-07-26T20:34:13.065Z,27.93
2018-07-26T20:36:46.440Z,27.84
2018-07-26T20:39:19.849Z,27.77
2018-07-26T20:41:53.250Z,27.66
2018-07-26T20:44:26.647Z,27.53
2018-07-26T20:47:00.010Z,27.47
2018-07-26T20:49:33.447Z,27.45
2018-07-26T20:52:07.113Z,27.38
2018-07-26T20:54:40.546Z,27.40
2018-07-26T20:57:14.107Z,27.30
2018-07-26T20:59:47.553Z,27.31
2018-07-26T21:02:21.035Z,27.29
2018-07-26T21:04:54.405Z,27.26
2018-07-26T21:07:27.839Z,27.20
2018-07-26T21:10:01.255Z,27.21
2018-07-26T21:12:34.612Z,27.20
2018-07-26T21:15:09.035Z,27.10
2018-07-26T21:17:42.412Z,27.00
2018-07-26T21:20:15.831Z,26.84
2018-07-26T21:22:49.223Z,26.71
2018-07-26T21:25:22.629Z,26.62
2018-07-26T21:27:55.999Z,26.50
2018-07-26T21:30:29.398Z,26.37
2018-07-26T21:33:02.831Z,26.30
2018-07-26T21:35:36.264Z,26.23
2018-07-26T21:38:09.650Z,26.15
2018-07-26T21:40:43.068Z,26.11
2018-07-26T21:43:17.491Z,25.99
2018-07-26T21:45:50.971Z,26.00
2018-07-26T21:48:24.362Z,25.95
2018-07-26T21:50:57.763Z,25.86
2018-07-26T21:53:31.218Z,25.77
2018-07-26T21:56:04.598Z,25.68
2018-07-26T21:58:37.994Z,25.58
2018-07-26T22:01:11.405Z,25.50
2018-07-26T22:03:44.808Z,25.43
2018-07-26T22:06:18.208Z,25.34
2018-07-26T22:08:51.588Z,25.28
2018-07-26T22:11:25.025Z,25.25
2018-07-26T22:13:58.436Z,25.16
2018-07-26T22:16:31.815Z,25.12
2018-07-26T22:19:05.270Z,25.05
2018-07-26T22:21:38.651Z,25.02
2018-07-26T22:24:12.077Z,25.00
2018-07-26T22:26:45.447Z,24.99
2018-07-26T22:29:18.838Z,24.97
2018-07-26T22:31:52.237Z,24.90
2018-07-26T22:34:25.612Z,24.92
2018-07-26T22:36:58.955Z,24.92
2018-07-26T22:39:32.416Z,24.89
2018-07-26T22:42:05.799Z,24.86
2018-07-26T22:44:39.163Z,24.80
2018-07-26T22:47:12.520Z,24.69
2018-07-26T22:49:45.918Z,24.56
2018-07-26T22:52:19.329Z,24.50
2018-07-26T22:54:52.660Z,24.45
2018-07-26T22:57:26.044Z,24.42
2018-07-26T22:59:59.426Z,24.40
2018-07-26T23:02:32.896Z,24.33
2018-07-26T23:05:06.269Z,24.28
2018-07-26T23:07:39.599Z,24.21
2018-07-26T23:10:12.984Z,24.17
2018-07-26T23:12:46.369Z,24.10
2018-07-26T23:15:19.753Z,24.07
2018-07-26T23:17:53.098Z,24.00
2018-07-26T23:20:26.486Z,23.91
2018-07-26T23:22:59.849Z,23.85
2018-07-26T23:25:33.313Z,23.80
2018-07-26T23:28:06.660Z,23.76
2018-07-26T23:30:40.047Z,23.76
2018-07-26T23:33:13.413Z,23.72
2018-07-26T23:35:46.772Z,23.75
2018-07-26T23:38:20.137Z,23.74
2018-07-26T23:40:53.503Z,23.70
2018-07-26T23:43:26.851Z,23.64
2018-07-26T23:46:00.221Z,23.56
2018-07-26T23:48:33.583Z,23.51
2018-07-26T23:51:07.319Z,23.46
2018-07-26T23:53:40.668Z,23.44
2018-07-26T23:56:14.028Z,23.40
2018-07-26T23:58:47.388Z,23.37
